Time;durP1;ratioP1;P1;durP2;ratioP2;P2;SDS_P1;SDS_P2;PMS_P1;PMS_P2;Temp;Humidity;BMP_temperature;BMP_pressure;BME280_temperature;BME280_humidity;BME280_pressure;Samples;Min_cycle;Max_cycle;Signal;HPM_P1;HPM_P2
2022/02/01 00:03:20;;;;;;;31.85;11.55;;;;;;;2.43;100.00;101243.47;10051458;29;20063;-71
2022/02/01 00:08:32;;;;;;;23.90;11.05;;;;;;;2.47;100.00;101240.03;10137140;28;20070;-69
2022/02/01 00:34:15;;;;;;;19.10;9.50;;;;;;;2.30;100.00;101234.69;10150440;28;20069;-69
2022/02/01 00:39:14;;;;;;;20.15;9.20;;;;;;;2.24;100.00;101235.69;10162791;28;20069;-69
2022/02/01 00:44:11;;;;;;;15.38;7.88;;;;;;;2.20;100.00;101234.53;10158921;28;20125;-69
2022/02/01 00:49:07;;;;;;;23.15;8.90;;;;;;;2.20;100.00;101237.25;10154404;28;20053;-70
2022/02/01 00:54:04;;;;;;;19.95;9.00;;;;;;;2.12;100.00;101242.25;10150779;28;20046;-70
2022/02/01 00:59:00;;;;;;;22.90;8.32;;;;;;;2.23;100.00;101244.84;10156610;28;20523;-70
2022/02/01 01:03:57;;;;;;;32.63;9.35;;;;;;;2.25;100.00;101249.97;10152558;28;20088;-70
2022/02/01 01:08:53;;;;;;;21.35;7.82;;;;;;;2.34;100.00;101253.88;10167306;28;20093;-69
2022/02/01 01:19:11;;;;;;;17.20;5.90;;;;;;;2.30;100.00;101272.47;10174973;28;20046;-70
2022/02/01 01:45:13;;;;;;;19.88;3.40;;;;;;;2.37;100.00;101239.91;10132994;28;20125;-69
2022/02/01 01:55:30;;;;;;;16.35;3.85;;;;;;;2.39;100.00;101223.44;10151483;28;20492;-70
2022/02/01 02:01:01;;;;;;;18.58;2.17;;;;;;;2.38;100.00;101230.72;10142932;28;20105;-70
2022/02/01 02:05:58;;;;;;;23.88;4.90;;;;;;;2.37;100.00;101228.28;10137487;28;20073;-71
2022/02/01 02:11:00;;;;;;;12.18;2.63;;;;;;;2.33;100.00;101210.97;10149622;28;20478;-65
2022/02/01 02:16:01;;;;;;;13.73;1.92;;;;;;;2.25;100.00;101199.56;10156105;28;20045;-66
2022/02/01 02:21:00;;;;;;;14.77;2.55;;;;;;;2.25;100.00;101188.75;10138322;28;20104;-65
2022/02/01 02:25:57;;;;;;;17.38;2.47;;;;;;;2.22;100.00;101200.03;10130361;28;20136;-66
2022/02/01 02:30:54;;;;;;;16.75;2.50;;;;;;;2.21;100.00;101198.41;10151558;28;20080;-65
2022/02/01 02:36:04;;;;;;;18.55;2.88;;;;;;;2.22;100.00;101189.25;10154076;28;20427;-65
2022/02/01 02:46:32;;;;;;;21.08;2.38;;;;;;;2.28;100.00;101207.13;10145259;28;20145;-66
2022/02/01 02:51:28;;;;;;;10.23;2.00;;;;;;;2.34;100.00;101207.19;10137636;28;20046;-66
2022/02/01 02:56:25;;;;;;;23.27;3.97;;;;;;;2.43;100.00;101201.09;10140510;28;20070;-65
2022/02/01 03:01:21;;;;;;;17.58;1.92;;;;;;;2.43;100.00;101206.50;10128392;28;20129;-64
2022/02/01 03:06:18;;;;;;;16.95;2.00;;;;;;;2.51;100.00;101203.38;10156931;28;20046;-64
2022/02/01 03:11:16;;;;;;;14.75;1.90;;;;;;;2.51;100.00;101202.56;10164490;28;20069;-65
2022/02/01 03:16:33;;;;;;;14.30;1.63;;;;;;;2.53;100.00;101205.84;10162126;28;20053;-64
2022/02/01 03:21:29;;;;;;;16.67;1.70;;;;;;;2.56;100.00;101183.72;10164547;28;20050;-66
2022/02/01 03:26:25;;;;;;;10.88;2.42;;;;;;;2.55;100.00;101179.38;10139243;28;20179;-66
2022/02/01 03:31:22;;;;;;;19.45;2.13;;;;;;;2.55;100.00;101182.06;10122511;28;20133;-64
2022/02/01 03:36:18;;;;;;;20.00;2.25;;;;;;;2.53;100.00;101178.84;10159074;28;20559;-65
2022/02/01 03:41:15;;;;;;;12.75;1.20;;;;;;;2.45;100.00;101181.97;10152662;28;20070;-66
2022/02/01 03:46:11;;;;;;;14.75;1.70;;;;;;;2.57;100.00;101166.44;10154259;28;20125;-66
2022/02/01 03:51:08;;;;;;;20.98;3.00;;;;;;;2.53;100.00;101178.84;10158540;28;20053;-66
2022/02/01 03:56:05;;;;;;;16.00;2.72;;;;;;;2.63;100.00;101164.63;10161988;28;20050;-65
2022/02/01 04:01:02;;;;;;;19.85;2.92;;;;;;;2.63;100.00;101156.53;10150572;28;20452;-64
2022/02/01 04:05:59;;;;;;;17.13;2.97;;;;;;;2.49;100.00;101156.09;10153111;28;20050;-65
2022/02/01 04:10:55;;;;;;;18.38;2.67;;;;;;;2.61;100.00;101147.88;10152350;28;20066;-65
2022/02/01 04:15:52;;;;;;;20.52;2.10;;;;;;;2.53;100.00;101149.16;10156929;28;20042;-65
2022/02/01 04:20:49;;;;;;;16.33;2.30;;;;;;;2.51;100.00;101137.78;10176314;28;20452;-66
2022/02/01 04:25:46;;;;;;;15.48;2.63;;;;;;;2.57;100.00;101136.75;10161215;28;20046;-65
2022/02/01 04:30:43;;;;;;;18.52;1.92;;;;;;;2.57;100.00;101152.94;10137924;28;20128;-66
2022/02/01 04:35:40;;;;;;;16.15;2.92;;;;;;;2.62;100.00;101150.31;10159403;28;20034;-66
2022/02/01 04:40:37;;;;;;;23.77;2.63;;;;;;;2.66;100.00;101134.41;10141527;28;20126;-66
2022/02/01 04:45:35;;;;;;;22.83;2.72;;;;;;;2.68;100.00;101133.09;10134428;28;20505;-66
2022/02/01 04:50:32;;;;;;;21.80;3.00;;;;;;;2.69;100.00;101118.53;10153132;28;20042;-65
2022/02/01 04:55:41;;;;;;;20.38;2.70;;;;;;;2.70;100.00;101130.94;10141351;28;20042;-65
2022/02/01 05:00:39;;;;;;;22.02;4.28;;;;;;;2.66;100.00;101151.44;10151802;28;20073;-66
2022/02/01 05:05:36;;;;;;;18.58;2.45;;;;;;;2.63;100.00;101138.44;10146475;28;20106;-66
2022/02/01 05:10:33;;;;;;;13.02;2.28;;;;;;;2.65;100.00;101149.81;10154821;28;20077;-66
2022/02/01 05:15:30;;;;;;;25.65;2.30;;;;;;;2.76;100.00;101155.31;10156432;28;20061;-65
2022/02/01 05:20:41;;;;;;;18.25;1.80;;;;;;;2.71;100.00;101151.47;10154453;28;20073;-66
2022/02/01 05:25:40;;;;;;;20.50;2.42;;;;;;;2.72;100.00;101165.81;10151300;28;20046;-64
2022/02/01 05:30:37;;;;;;;30.23;3.25;;;;;;;2.73;100.00;101162.84;10150629;28;20056;-65
2022/02/01 05:35:34;;;;;;;20.63;2.53;;;;;;;2.73;100.00;101156.63;10152212;28;20042;-67
2022/02/01 05:40:31;;;;;;;19.13;3.10;;;;;;;2.69;100.00;101150.94;10153521;28;20141;-67
2022/02/01 05:45:29;;;;;;;16.60;2.67;;;;;;;2.68;100.00;101143.09;10154921;28;20507;-66
2022/02/01 05:50:25;;;;;;;14.57;2.55;;;;;;;2.59;100.00;101129.22;10155651;28;20062;-68
2022/02/01 05:55:22;;;;;;;14.45;3.08;;;;;;;2.64;100.00;101129.25;10176240;28;20417;-68
2022/02/01 06:00:20;;;;;;;25.00;2.65;;;;;;;2.66;100.00;101126.31;10163323;28;20719;-68
2022/02/01 06:05:17;;;;;;;17.92;2.80;;;;;;;2.66;100.00;101102.81;10173367;28;20050;-68
2022/02/01 06:10:14;;;;;;;16.13;2.40;;;;;;;2.67;100.00;101093.66;10165424;28;20105;-68
2022/02/01 06:15:11;;;;;;;22.77;2.25;;;;;;;2.69;100.00;101088.00;10135726;28;20077;-66
2022/02/01 06:20:10;;;;;;;13.23;2.83;;;;;;;2.67;100.00;101080.16;10153532;28;20088;-67
2022/02/01 06:25:08;;;;;;;15.38;2.88;;;;;;;2.73;100.00;101098.03;10146525;28;20112;-66
2022/02/01 06:30:06;;;;;;;19.63;2.67;;;;;;;2.60;100.00;101087.66;10136683;28;20046;-67
2022/02/01 06:35:06;;;;;;;14.55;2.45;;;;;;;2.68;100.00;101094.47;10151926;28;20133;-66
2022/02/01 06:40:03;;;;;;;17.20;2.28;;;;;;;2.67;100.00;101099.06;10150905;28;20082;-66
2022/02/01 06:45:01;;;;;;;14.27;2.10;;;;;;;2.66;100.00;101097.41;10142602;28;20134;-67
2022/02/01 06:49:58;;;;;;;14.65;1.83;;;;;;;2.60;100.00;101084.97;10133538;28;20097;-66
2022/02/01 06:54:54;;;;;;;17.00;2.28;;;;;;;2.58;100.00;101100.59;10144445;28;20042;-66
2022/02/01 06:59:51;;;;;;;17.65;2.40;;;;;;;2.59;100.00;101063.63;10155348;28;20127;-67
2022/02/01 07:04:47;;;;;;;18.00;2.08;;;;;;;2.58;100.00;101051.19;10139562;28;20045;-66
2022/02/01 07:09:45;;;;;;;23.35;4.20;;;;;;;2.49;100.00;101026.56;10151863;28;20125;-67
2022/02/01 07:14:41;;;;;;;12.77;1.75;;;;;;;2.53;100.00;101009.59;10145507;28;20081;-67
2022/02/01 07:19:38;;;;;;;13.52;2.22;;;;;;;2.59;100.00;101026.63;10147379;28;20046;-66
2022/02/01 07:24:38;;;;;;;16.00;1.58;;;;;;;2.57;100.00;101038.75;10148016;28;20116;-66
2022/02/01 07:29:35;;;;;;;25.70;2.53;;;;;;;2.68;100.00;101030.50;10149492;28;20910;-66
2022/02/01 07:34:33;;;;;;;19.98;1.90;;;;;;;2.68;100.00;101024.28;10151698;28;20172;-66
2022/02/01 07:39:32;;;;;;;16.77;2.25;;;;;;;2.65;100.00;101006.72;10147837;28;20295;-69
2022/02/01 07:44:30;;;;;;;14.18;2.05;;;;;;;2.71;100.00;100970.56;10145103;28;20066;-68
2022/02/01 07:49:26;;;;;;;15.90;2.28;;;;;;;2.70;100.00;100968.94;10154560;28;20415;-68
2022/02/01 07:54:22;;;;;;;20.52;2.33;;;;;;;2.72;100.00;100966.00;10157124;28;20050;-68
2022/02/01 07:59:19;;;;;;;18.73;2.75;;;;;;;2.74;100.00;100977.34;10175326;28;20046;-68
2022/02/01 08:04:16;;;;;;;18.13;2.85;;;;;;;2.86;100.00;100963.66;10161182;28;20093;-67
2022/02/01 08:09:23;;;;;;;16.90;3.28;;;;;;;2.82;100.00;100941.75;10178546;28;20042;-67
2022/02/01 08:20:06;;;;;;;12.07;2.63;;;;;;;2.84;100.00;100903.69;10158561;28;20043;-67
2022/02/01 08:25:07;;;;;;;8.63;1.58;;;;;;;2.90;100.00;100897.22;10123357;28;20046;-68
2022/02/01 08:30:05;;;;;;;8.07;1.50;;;;;;;2.92;100.00;100905.88;10155845;28;20513;-68
2022/02/01 08:35:01;;;;;;;16.23;2.90;;;;;;;3.02;100.00;100884.34;10152129;28;20866;-66
2022/02/01 08:39:59;;;;;;;13.50;2.00;;;;;;;3.07;100.00;100862.75;10151961;28;20077;-66
2022/02/01 08:44:56;;;;;;;14.00;2.58;;;;;;;3.09;100.00;100851.69;10160258;28;20047;-67
2022/02/01 08:49:53;;;;;;;15.15;1.85;;;;;;;3.05;100.00;100851.38;10156901;28;20447;-67
2022/02/01 08:54:51;;;;;;;19.00;4.90;;;;;;;3.14;100.00;100824.69;10153745;28;20046;-67
2022/02/01 09:00:03;;;;;;;16.88;3.42;;;;;;;3.14;100.00;100817.38;10160818;28;20042;-67
2022/02/01 09:05:00;;;;;;;12.52;2.38;;;;;;;3.13;100.00;100794.16;10157108;28;20045;-67
2022/02/01 09:09:56;;;;;;;14.85;2.40;;;;;;;3.15;100.00;100802.78;10168094;28;20073;-67
2022/02/01 09:14:53;;;;;;;15.68;2.00;;;;;;;3.26;100.00;100786.63;10162259;28;20074;-67
2022/02/01 09:20:10;;;;;;;8.52;1.95;;;;;;;3.33;100.00;100760.13;10154730;28;20129;-67
2022/02/01 09:25:07;;;;;;;9.75;3.28;;;;;;;3.28;100.00;100743.91;10165934;28;20799;-67
2022/02/01 09:30:05;;;;;;;16.08;2.50;;;;;;;3.32;100.00;100716.09;10156060;28;20089;-67
2022/02/01 09:35:01;;;;;;;15.50;2.33;;;;;;;3.41;100.00;100702.84;10171744;28;20919;-67
2022/02/01 09:39:58;;;;;;;12.35;2.40;;;;;;;3.41;100.00;100680.41;10155865;28;20138;-67
2022/02/01 09:44:56;;;;;;;18.27;2.95;;;;;;;3.35;100.00;100660.69;10167874;28;20070;-67
2022/02/01 09:49:52;;;;;;;21.40;4.32;;;;;;;3.37;100.00;100664.75;10153324;28;20093;-67
2022/02/01 09:54:51;;;;;;;10.95;4.30;;;;;;;3.26;100.00;100640.69;10155455;28;20046;-67
2022/02/01 09:59:58;;;;;;;14.85;5.28;;;;;;;3.24;100.00;100627.44;10151396;28;20541;-68
2022/02/01 10:05:02;;;;;;;17.08;5.68;;;;;;;3.06;100.00;100617.97;10164493;28;20076;-67
2022/02/01 10:10:01;;;;;;;22.95;7.60;;;;;;;3.07;100.00;100599.91;10157570;28;20054;-67
2022/02/01 10:15:12;;;;;;;17.58;6.88;;;;;;;2.96;100.00;100577.47;10159528;28;20058;-67
2022/02/01 10:20:16;;;;;;;16.48;6.63;;;;;;;2.97;100.00;100568.31;10160098;28;20476;-67
2022/02/01 10:25:29;;;;;;;19.23;6.78;;;;;;;2.95;100.00;100552.38;10150874;28;20070;-67
2022/02/01 10:30:41;;;;;;;16.42;6.88;;;;;;;2.96;100.00;100542.38;10171378;28;20046;-67
2022/02/01 10:35:55;;;;;;;15.35;5.68;;;;;;;2.95;100.00;100501.03;10168303;28;20050;-67
2022/02/01 10:40:53;;;;;;;16.73;4.60;;;;;;;2.92;100.00;100476.47;10165700;28;20042;-67
2022/02/01 10:46:03;;;;;;;14.13;4.70;;;;;;;2.98;100.00;100451.06;10178457;28;20046;-68
2022/02/01 10:51:02;;;;;;;14.73;5.18;;;;;;;2.85;100.00;100430.03;10162369;28;20046;-67
2022/02/01 10:56:00;;;;;;;14.73;5.18;;;;;;;2.84;100.00;100401.41;10168433;28;20046;-67
2022/02/01 11:00:57;;;;;;;13.02;5.90;;;;;;;2.98;100.00;100386.25;10165315;28;20125;-68
2022/02/01 11:05:56;;;;;;;9.25;4.97;;;;;;;3.04;100.00;100366.25;10172539;28;20058;-68
2022/02/01 11:10:55;;;;;;;12.27;4.90;;;;;;;3.04;100.00;100368.13;10164568;28;20229;-68
2022/02/01 11:16:03;;;;;;;12.65;6.20;;;;;;;3.02;100.00;100322.50;10159729;28;20101;-67
2022/02/01 11:21:02;;;;;;;12.55;4.75;;;;;;;3.08;100.00;100293.56;10160289;28;20046;-67
2022/02/01 11:26:07;;;;;;;8.88;5.40;;;;;;;3.14;100.00;100287.84;10158168;28;20129;-67
2022/02/01 11:31:10;;;;;;;11.50;4.68;;;;;;;3.15;100.00;100284.06;10160617;28;20044;-67
2022/02/01 11:36:12;;;;;;;9.77;5.07;;;;;;;3.23;100.00;100241.34;10166516;28;20050;-67
2022/02/01 11:41:10;;;;;;;11.63;6.18;;;;;;;3.33;100.00;100225.06;10176904;28;20046;-67
2022/02/01 11:46:09;;;;;;;9.43;6.03;;;;;;;3.29;100.00;100207.78;10173529;28;20121;-66
2022/02/01 11:51:09;;;;;;;6.35;4.15;;;;;;;3.33;100.00;100206.16;10164449;28;20042;-67
2022/02/01 11:56:08;;;;;;;6.15;4.45;;;;;;;3.34;100.00;100208.56;10160987;28;20050;-67
2022/02/01 12:01:20;;;;;;;8.70;4.65;;;;;;;3.40;100.00;100171.50;10159121;28;20081;-67
2022/02/01 12:06:21;;;;;;;11.70;5.53;;;;;;;3.55;100.00;100157.84;10158561;28;20050;-67
2022/02/01 12:11:19;;;;;;;9.65;5.00;;;;;;;3.56;100.00;100153.25;10162396;28;20125;-67
2022/02/01 12:16:16;;;;;;;10.80;5.68;;;;;;;3.59;100.00;100147.25;10155107;28;20718;-67
2022/02/01 12:21:57;;;;;;;8.20;4.45;;;;;;;3.69;100.00;100124.72;10163505;28;20128;-68
2022/02/01 12:26:54;;;;;;;10.05;7.18;;;;;;;3.77;100.00;100126.81;10177265;28;20089;-66
2022/02/01 12:31:52;;;;;;;14.68;8.45;;;;;;;3.88;100.00;100106.69;10169869;28;20041;-68
2022/02/01 12:36:52;;;;;;;12.50;7.15;;;;;;;3.99;100.00;100102.78;10152993;28;20088;-67
2022/02/01 12:46:59;;;;;;;8.85;5.32;;;;;;;4.15;100.00;100079.03;10165173;28;20684;-67
2022/02/01 12:52:32;;;;;;;6.25;3.97;;;;;;;4.29;100.00;100062.06;10148928;28;20052;-68
2022/02/01 12:57:30;;;;;;;6.72;3.63;;;;;;;4.39;100.00;100068.16;10148105;28;20072;-67
2022/02/01 13:02:31;;;;;;;4.80;2.42;;;;;;;4.45;100.00;100049.94;10151236;28;20424;-68
2022/02/01 13:12:58;;;;;;;5.32;3.03;;;;;;;4.67;100.00;100035.00;10163184;28;20054;-67
2022/02/01 13:18:18;;;;;;;5.32;2.58;;;;;;;4.77;100.00;100030.22;10175525;28;20046;-67
2022/02/01 13:23:18;;;;;;;10.18;3.70;;;;;;;4.85;100.00;100015.22;10161986;28;20057;-67
2022/02/01 13:28:15;;;;;;;10.07;3.55;;;;;;;4.97;100.00;100001.19;10169391;28;20085;-67
2022/02/01 13:33:14;;;;;;;14.98;4.00;;;;;;;5.11;100.00;99979.53;10174789;28;20050;-67
2022/02/01 13:38:12;;;;;;;12.82;3.60;;;;;;;5.27;100.00;100000.63;10159324;28;20054;-67
2022/02/01 13:43:21;;;;;;;11.75;3.28;;;;;;;5.39;100.00;99980.38;10153036;28;20081;-68
2022/02/01 13:48:21;;;;;;;16.77;3.50;;;;;;;5.48;100.00;99978.56;10165624;28;20082;-67
2022/02/01 13:53:18;;;;;;;16.88;5.30;;;;;;;5.54;100.00;99963.78;10154206;28;20512;-68
2022/02/01 13:58:19;;;;;;;11.00;2.72;;;;;;;5.58;100.00;99966.69;10179728;28;20041;-67
2022/02/01 14:03:42;;;;;;;20.42;2.65;;;;;;;5.57;100.00;99955.06;10164828;28;20055;-67
2022/02/01 14:08:54;;;;;;;18.45;3.92;;;;;;;5.66;100.00;99930.72;10178307;28;20045;-68
2022/02/01 14:14:15;;;;;;;20.27;3.10;;;;;;;5.74;100.00;99923.78;10166520;28;20046;-68
2022/02/01 14:34:36;;;;;;;20.60;4.10;;;;;;;5.92;100.00;99939.13;10150752;28;20054;-67
2022/02/01 14:44:45;;;;;;;14.75;2.75;;;;;;;6.01;100.00;99926.47;10136220;28;20492;-67
2022/02/01 14:49:43;;;;;;;35.85;3.88;;;;;;;6.08;100.00;99940.41;10130164;28;20049;-66
2022/02/01 15:05:21;;;;;;;16.02;4.13;;;;;;;6.13;100.00;99906.09;10151331;28;20100;-67
2022/02/01 15:15:44;;;;;;;26.63;4.90;;;;;;;6.20;100.00;99928.22;10119169;28;20125;-67
2022/02/01 15:20:40;;;;;;;22.25;3.03;;;;;;;6.24;100.00;99912.88;10144068;28;20129;-68
2022/02/01 15:25:37;;;;;;;20.42;2.75;;;;;;;6.20;100.00;99901.06;10134640;28;20062;-68
2022/02/01 15:30:35;;;;;;;14.13;2.03;;;;;;;6.15;100.00;99893.84;10154045;28;20077;-68
2022/02/01 15:35:32;;;;;;;15.27;2.55;;;;;;;6.06;100.00;99893.78;10151568;28;20145;-67
2022/02/01 16:01:43;;;;;;;17.55;2.90;;;;;;;6.05;100.00;99878.59;10160225;28;20514;-68
2022/02/01 16:07:03;;;;;;;27.63;4.22;;;;;;;6.11;100.00;99909.13;10156093;28;20054;-67
2022/02/01 16:12:05;;;;;;;25.23;3.88;;;;;;;6.17;100.00;99875.31;10159622;28;20061;-69
2022/02/01 16:17:02;;;;;;;24.53;3.70;;;;;;;6.14;100.00;99886.00;10151804;28;20137;-67
2022/02/01 16:21:58;;;;;;;33.28;3.97;;;;;;;6.17;100.00;99880.75;10144054;28;20046;-67
2022/02/01 16:27:02;;;;;;;29.80;6.40;;;;;;;6.20;100.00;99879.34;10145389;28;20050;-67
2022/02/01 16:31:58;;;;;;;28.33;4.57;;;;;;;6.22;100.00;99888.78;10145671;28;20626;-67
2022/02/01 16:36:58;;;;;;;31.02;4.70;;;;;;;6.16;100.00;99910.94;10149429;28;20476;-67
2022/02/01 16:41:59;;;;;;;40.20;5.18;;;;;;;5.86;100.00;99940.34;10146900;28;20138;-67
2022/02/01 16:47:16;;;;;;;21.10;3.53;;;;;;;5.55;100.00;99959.97;10139736;28;20042;-67
2022/02/01 16:52:40;;;;;;;28.02;4.28;;;;;;;5.53;100.00;99932.34;10161119;28;20050;-67
2022/02/01 16:57:48;;;;;;;17.95;3.05;;;;;;;5.44;100.00;99917.91;10163845;28;20077;-66
2022/02/01 17:02:45;;;;;;;26.55;3.67;;;;;;;5.39;100.00;99915.31;10189075;28;20046;-67
2022/02/01 17:07:42;;;;;;;15.18;3.92;;;;;;;5.34;100.00;99923.50;10139109;28;20081;-67
2022/02/01 17:12:48;;;;;;;22.20;2.88;;;;;;;5.30;100.00;99922.53;10141257;28;20058;-68
2022/02/01 17:18:11;;;;;;;19.00;3.92;;;;;;;5.31;100.00;99929.56;10144149;28;20078;-68
2022/02/01 17:23:04;;;;;;;20.80;3.50;;;;;;;5.32;100.00;99931.16;10142611;28;20054;-67
2022/02/01 17:28:01;;;;;;;31.67;5.03;;;;;;;5.38;100.00;99929.94;10145983;28;20043;-67
2022/02/01 17:32:57;;;;;;;33.70;4.55;;;;;;;5.46;100.00;99948.22;10147519;28;20193;-67
2022/02/01 17:37:54;;;;;;;42.85;5.00;;;;;;;5.51;100.00;99918.28;10145782;28;20038;-67
2022/02/01 17:42:52;;;;;;;41.83;8.48;;;;;;;5.62;100.00;99929.75;10145735;28;20042;-68
2022/02/01 17:47:50;;;;;;;33.92;5.53;;;;;;;5.73;100.00;99919.47;10149611;28;20056;-67
2022/02/01 17:52:58;;;;;;;54.38;7.60;;;;;;;5.85;100.00;99917.03;10148217;28;20054;-68
2022/02/01 17:57:54;;;;;;;31.10;5.70;;;;;;;5.90;100.00;99914.19;10147378;28;20081;-68
2022/02/01 18:02:51;;;;;;;32.60;6.30;;;;;;;5.89;100.00;99918.00;10141762;28;20048;-68
2022/02/01 18:07:48;;;;;;;48.22;7.25;;;;;;;5.92;100.00;99936.41;10147298;28;20074;-68
2022/02/01 18:13:05;;;;;;;41.60;6.13;;;;;;;5.92;100.00;99928.28;10152515;28;20086;-67
2022/02/01 18:18:06;;;;;;;43.90;9.15;;;;;;;5.89;100.00;99939.72;10139132;28;20420;-67
2022/02/01 18:23:04;;;;;;;42.38;7.18;;;;;;;5.88;100.00;99938.91;10127223;28;20042;-68
2022/02/01 18:28:01;;;;;;;49.97;7.75;;;;;;;5.88;100.00;99938.13;10124508;28;20047;-67
2022/02/01 18:33:00;;;;;;;61.88;11.13;;;;;;;5.86;100.00;99951.97;10122839;28;20197;-68
2022/02/01 18:38:04;;;;;;;55.85;9.23;;;;;;;5.85;100.00;99941.44;10136124;28;20701;-67
2022/02/01 18:43:06;;;;;;;62.45;9.90;;;;;;;5.78;100.00;99931.00;10146265;28;20038;-67
2022/02/01 18:48:07;;;;;;;58.13;9.75;;;;;;;5.73;100.00;99952.00;10141953;28;20043;-67
2022/02/01 18:58:17;;;;;;;32.60;5.75;;;;;;;5.77;100.00;99958.44;10139490;28;20104;-68
2022/02/01 19:04:06;;;;;;;36.38;6.38;;;;;;;5.76;100.00;99946.00;10144353;28;20038;-67
2022/02/01 19:14:03;;;;;;;36.38;6.32;;;;;;;5.77;100.00;99969.28;10150492;28;20484;-67
2022/02/01 19:19:01;;;;;;;33.45;5.80;;;;;;;5.74;100.00;99975.31;10155404;28;20641;-68
2022/02/01 19:24:03;;;;;;;37.95;5.65;;;;;;;5.69;100.00;100000.66;10147114;28;20054;-67
2022/02/01 19:29:00;;;;;;;25.67;4.78;;;;;;;5.59;100.00;99996.25;10140595;28;20487;-67
2022/02/01 19:34:00;;;;;;;34.05;4.88;;;;;;;5.49;100.00;99993.72;10134426;28;20066;-68
2022/02/01 19:38:57;;;;;;;37.78;6.68;;;;;;;5.46;100.00;100002.47;10142239;28;20046;-67
2022/02/01 19:43:57;;;;;;;31.17;4.03;;;;;;;5.46;100.00;100026.84;10146162;28;20054;-67
2022/02/01 19:48:56;;;;;;;32.45;5.10;;;;;;;5.47;100.00;100029.25;10141688;28;20047;-67
2022/02/01 19:53:55;;;;;;;34.92;5.72;;;;;;;5.47;100.00;100014.91;10139162;28;20564;-69
2022/02/01 19:58:55;;;;;;;27.40;4.10;;;;;;;5.50;100.00;100030.59;10147155;28;20089;-68
2022/02/01 20:03:51;;;;;;;37.42;7.78;;;;;;;5.52;100.00;100024.84;10144023;28;20555;-68
2022/02/01 20:08:50;;;;;;;38.55;6.30;;;;;;;5.52;100.00;100016.72;10147030;28;20721;-71
2022/02/01 20:13:46;;;;;;;30.63;4.57;;;;;;;5.51;100.00;100043.03;10144195;28;20158;-70
2022/02/01 20:18:43;;;;;;;25.48;5.10;;;;;;;5.45;100.00;100022.53;10151625;28;20083;-71
2022/02/01 20:23:40;;;;;;;38.80;5.30;;;;;;;5.41;100.00;100059.50;10137311;28;20141;-69
2022/02/01 20:28:36;;;;;;;33.10;4.90;;;;;;;5.38;100.00;100052.72;10147480;28;20655;-71
2022/02/01 20:33:38;;;;;;;35.55;5.00;;;;;;;5.35;100.00;100071.53;10160085;28;20096;-71
2022/02/01 20:38:41;;;;;;;43.40;6.43;;;;;;;5.39;100.00;100062.50;10141741;28;20043;-70
2022/02/01 20:43:38;;;;;;;38.42;5.35;;;;;;;5.42;100.00;100061.09;10140762;28;20078;-70
2022/02/01 20:48:34;;;;;;;42.80;5.85;;;;;;;5.43;100.00;100068.09;10137679;28;20034;-70
2022/02/01 20:53:32;;;;;;;39.60;6.28;;;;;;;5.46;100.00;100070.25;10148123;28;20038;-70
2022/02/01 20:58:28;;;;;;;41.10;6.22;;;;;;;5.44;100.00;100075.16;10140675;28;20073;-70
2022/02/01 21:03:25;;;;;;;40.80;6.13;;;;;;;5.44;100.00;100075.16;10135775;28;20042;-70
2022/02/01 21:08:23;;;;;;;49.20;4.25;;;;;;;5.42;100.00;100099.03;10144620;28;20835;-71
2022/02/01 21:13:19;;;;;;;33.25;5.45;;;;;;;5.43;100.00;100098.75;10135609;28;21105;-68
2022/02/01 21:18:19;;;;;;;45.05;7.20;;;;;;;5.41;100.00;100094.75;10146566;28;20038;-67
2022/02/01 21:23:18;;;;;;;32.70;4.80;;;;;;;5.42;100.00;100120.75;10143387;28;20129;-69
2022/02/01 21:28:16;;;;;;;38.25;4.65;;;;;;;5.39;100.00;100119.44;10151475;28;20504;-69
2022/02/01 21:33:13;;;;;;;37.63;4.90;;;;;;;5.37;100.00;100107.28;10149443;28;20042;-67
2022/02/01 21:38:10;;;;;;;41.30;5.82;;;;;;;5.35;100.00;100120.31;10156707;28;20433;-66
2022/02/01 21:43:06;;;;;;;41.50;5.60;;;;;;;5.34;100.00;100129.53;10158716;28;20125;-65
2022/02/01 21:48:03;;;;;;;46.15;5.60;;;;;;;5.30;100.00;100125.84;10154613;28;20072;-66
2022/02/01 21:53:00;;;;;;;36.78;5.28;;;;;;;5.27;100.00;100140.78;10150947;28;20042;-66
2022/02/01 21:57:56;;;;;;;40.22;6.78;;;;;;;5.23;100.00;100143.28;10147246;28;20125;-66
2022/02/01 22:02:55;;;;;;;38.35;6.13;;;;;;;5.24;100.00;100152.19;10148291;28;20460;-66
2022/02/01 22:07:53;;;;;;;28.02;5.35;;;;;;;5.24;100.00;100141.34;10144506;28;20042;-66
2022/02/01 22:12:50;;;;;;;34.88;4.90;;;;;;;5.26;100.00;100139.97;10151352;28;20068;-66
2022/02/01 22:17:47;;;;;;;32.80;5.95;;;;;;;5.25;100.00;100154.63;10154380;28;20077;-66
2022/02/01 22:23:05;;;;;;;40.58;6.32;;;;;;;5.27;100.00;100147.00;10158115;28;20053;-65
2022/02/01 22:28:01;;;;;;;24.98;5.05;;;;;;;5.26;100.00;100150.81;10153891;28;20038;-63
2022/02/01 22:33:04;;;;;;;23.33;4.90;;;;;;;5.25;100.00;100143.78;10159156;28;20108;-63
2022/02/01 22:38:01;;;;;;;34.90;6.80;;;;;;;5.25;100.00;100138.38;10155923;28;20078;-67
2022/02/01 22:42:58;;;;;;;46.90;5.47;;;;;;;5.26;100.00;100144.59;10148167;28;20089;-64
2022/02/01 22:47:54;;;;;;;37.92;6.05;;;;;;;5.21;100.00;100133.84;10145881;28;20547;-63
2022/02/01 22:52:51;;;;;;;29.67;5.95;;;;;;;5.21;100.00;100150.88;10155847;28;20100;-66
2022/02/01 22:57:48;;;;;;;24.95;4.38;;;;;;;5.20;100.00;100151.22;10153765;28;20132;-66
2022/02/01 23:02:45;;;;;;;39.22;6.07;;;;;;;5.20;100.00;100119.47;10157416;28;20049;-66
2022/02/01 23:07:42;;;;;;;36.35;4.65;;;;;;;5.23;100.00;100145.97;10146167;28;20039;-66
2022/02/01 23:17:55;;;;;;;44.15;6.00;;;;;;;5.28;100.00;100170.28;10154514;28;20136;-66
2022/02/01 23:22:53;;;;;;;39.53;5.40;;;;;;;5.31;100.00;100216.88;10159923;28;20045;-64
2022/02/01 23:27:52;;;;;;;39.03;6.00;;;;;;;5.33;100.00;100193.00;10157590;28;20042;-65
2022/02/01 23:48:12;;;;;;;55.88;8.25;;;;;;;5.00;100.00;100209.22;10159639;28;20134;-64
2022/02/01 23:53:09;;;;;;;56.75;6.63;;;;;;;4.96;100.00;100211.69;10154956;28;20044;-64
2022/02/01 23:58:21;;;;;;;22.23;5.13;;;;;;;5.01;100.00;100221.66;10151668;28;20092;-65
